createdAt,value
2017-03-11T00:00:36.823Z,1027.3
2017-03-11T00:01:39.354Z,1027.3
2017-03-11T00:02:42.171Z,1027.3
2017-03-11T00:03:44.924Z,1027.3
2017-03-11T00:04:46.930Z,1027.3
2017-03-11T00:05:49.464Z,1027.3
2017-03-11T00:06:52.283Z,1027.4
2017-03-11T00:07:54.790Z,1027.4
2017-03-11T00:08:57.383Z,1027.4
2017-03-11T00:09:59.936Z,1027.4
2017-03-11T00:11:02.443Z,1027.4
2017-03-11T00:12:04.956Z,1027.4
2017-03-11T00:13:07.437Z,1027.4
2017-03-11T00:14:10.527Z,1027.4
2017-03-11T00:15:12.503Z,1027.4
2017-03-11T00:16:15.504Z,1027.4
2017-03-11T00:17:17.991Z,1027.4
2017-03-11T00:18:20.497Z,1027.4
2017-03-11T00:19:23.074Z,1027.4
2017-03-11T00:20:25.557Z,1027.4
2017-03-11T00:21:28.056Z,1027.4
2017-03-11T00:22:30.559Z,1027.4
2017-03-11T00:23:33.105Z,1027.3
2017-03-11T00:24:36.207Z,1027.4
2017-03-11T00:25:38.230Z,1027.4
2017-03-11T00:26:40.744Z,1027.4
2017-03-11T00:27:43.243Z,1027.4
2017-03-11T00:28:45.755Z,1027.4
2017-03-11T00:29:48.998Z,1027.4
2017-03-11T00:30:50.978Z,1027.5
2017-03-11T00:31:53.465Z,1027.4
2017-03-11T00:32:55.999Z,1027.5
2017-03-11T00:33:58.487Z,1027.4
2017-03-11T00:35:01.765Z,1027.5
2017-03-11T00:36:03.747Z,1027.5
2017-03-11T00:37:06.238Z,1027.4
2017-03-11T00:38:08.724Z,1027.4
2017-03-11T00:39:11.713Z,1027.4
2017-03-11T00:41:16.700Z,1027.4
2017-03-11T00:42:19.027Z,1027.4
2017-03-11T00:43:21.529Z,1027.4
2017-03-11T00:44:24.052Z,1027.4
2017-03-11T00:45:26.574Z,1027.4
2017-03-11T00:46:29.821Z,1027.4
2017-03-11T00:47:31.844Z,1027.4
2017-03-11T00:48:34.342Z,1027.5
2017-03-11T00:49:37.136Z,1027.5
2017-03-11T00:50:39.623Z,1027.4
2017-03-11T00:51:42.402Z,1027.4
2017-03-11T00:53:47.299Z,1027.4
2017-03-11T00:54:49.793Z,1027.3
2017-03-11T00:55:52.293Z,1027.4
2017-03-11T00:56:55.057Z,1027.3
2017-03-11T00:57:57.389Z,1027.3
2017-03-11T00:58:59.932Z,1027.3
2017-03-11T01:00:02.451Z,1027.3
2017-03-11T01:01:05.286Z,1027.4
2017-03-11T01:02:08.033Z,1027.4
2017-03-11T01:03:10.021Z,1027.4
2017-03-11T01:04:12.531Z,1027.3
2017-03-11T01:05:15.517Z,1027.3
2017-03-11T01:06:17.838Z,1027.4
2017-03-11T01:07:20.568Z,1027.3
2017-03-11T01:08:23.063Z,1027.3
2017-03-11T01:09:25.554Z,1027.4
2017-03-11T01:10:28.104Z,1027.3
2017-03-11T01:11:30.421Z,1027.3
2017-03-11T01:12:33.662Z,1027.3
2017-03-11T01:13:35.481Z,1027.3
2017-03-11T01:14:38.477Z,1027.3
2017-03-11T01:15:40.963Z,1027.3
2017-03-11T01:16:43.465Z,1027.2
2017-03-11T01:17:46.210Z,1027.2
2017-03-11T01:18:48.695Z,1027.2
2017-03-11T01:19:51.219Z,1027.2
2017-03-11T01:20:53.735Z,1027.2
2017-03-11T01:21:56.228Z,1027.2
2017-03-11T01:22:58.961Z,1027.2
2017-03-11T01:24:00.956Z,1027.2
2017-03-11T01:25:03.961Z,1027.2
2017-03-11T01:26:06.466Z,1027.2
2017-03-11T01:27:08.790Z,1027.1
2017-03-11T01:28:11.899Z,1027.1
2017-03-11T01:29:13.876Z,1027.1
2017-03-11T01:30:16.693Z,1027.1
2017-03-11T01:31:19.026Z,1027.1
2017-03-11T01:32:21.544Z,1027.2
2017-03-11T01:33:24.624Z,1027.1
2017-03-11T01:34:26.616Z,1027.1
2017-03-11T01:35:29.107Z,1027.1
2017-03-11T01:36:31.600Z,1027.1
2017-03-11T01:37:34.087Z,1027.1
2017-03-11T01:38:37.368Z,1027.2
2017-03-11T01:39:39.357Z,1027.1
2017-03-11T01:40:41.847Z,1027.1
2017-03-11T01:41:44.358Z,1027.1
2017-03-11T01:42:46.861Z,1027.1
2017-03-11T01:43:49.642Z,1027.1
2017-03-11T01:44:52.170Z,1027
2017-03-11T01:45:54.658Z,1027
2017-03-11T01:46:57.142Z,1027
2017-03-11T01:47:59.673Z,1027
2017-03-11T01:49:02.458Z,1027
2017-03-11T01:50:04.982Z,1026.9
2017-03-11T01:51:07.542Z,1027
2017-03-11T01:52:09.868Z,1027
2017-03-11T01:53:12.352Z,1027
2017-03-11T01:54:15.439Z,1026.9
2017-03-11T01:55:17.760Z,1027
2017-03-11T01:56:20.250Z,1026.9
2017-03-11T01:57:22.747Z,1026.8
2017-03-11T01:58:25.077Z,1026.8
2017-03-11T01:59:27.821Z,1026.9
2017-03-11T02:00:30.307Z,1026.9
2017-03-11T02:01:32.789Z,1026.9
2017-03-11T02:02:35.582Z,1026.9
2017-03-11T02:03:38.083Z,1026.9
2017-03-11T02:04:40.661Z,1026.9
2017-03-11T02:05:43.168Z,1026.8
2017-03-11T02:06:45.655Z,1026.8
2017-03-11T02:07:48.151Z,1026.7
2017-03-11T02:08:50.646Z,1026.8
2017-03-11T02:09:53.389Z,1026.8
2017-03-11T02:10:55.880Z,1026.8
2017-03-11T02:11:58.372Z,1026.7
2017-03-11T02:13:00.852Z,1026.7
2017-03-11T02:14:03.359Z,1026.7
2017-03-11T02:15:05.931Z,1026.7
2017-03-11T02:16:08.427Z,1026.7
2017-03-11T02:17:10.918Z,1026.6
2017-03-11T02:18:13.424Z,1026.6
2017-03-11T02:19:15.921Z,1026.6
2017-03-11T02:20:18.656Z,1026.6
2017-03-11T02:21:21.151Z,1026.6
2017-03-11T02:22:23.650Z,1026.6
2017-03-11T02:23:26.132Z,1026.6
2017-03-11T02:24:28.956Z,1026.6
2017-03-11T02:25:31.706Z,1026.6
2017-03-11T02:26:33.695Z,1026.6
2017-03-11T02:27:36.190Z,1026.6
2017-03-11T02:28:38.719Z,1026.6
2017-03-11T02:29:41.205Z,1026.6
2017-03-11T02:30:43.988Z,1026.6
2017-03-11T02:34:54.199Z,1026.6
2017-03-11T02:35:56.940Z,1026.5
2017-03-11T02:36:59.426Z,1026.6
2017-03-11T02:38:01.915Z,1026.6
2017-03-11T02:40:06.819Z,1026.6
2017-03-11T02:41:09.392Z,1026.6
2017-03-11T02:42:11.893Z,1026.6
2017-03-11T02:43:14.385Z,1026.6
2017-03-11T02:44:16.875Z,1026.6
2017-03-11T02:46:22.518Z,1026.6
2017-03-11T02:47:24.515Z,1026.5
2017-03-11T02:48:27.005Z,1026.5
2017-03-11T02:49:29.894Z,1026.5
2017-03-11T02:50:32.383Z,1026.5
2017-03-11T02:51:35.117Z,1026.5
2017-03-11T02:52:37.099Z,1026.5
2017-03-11T02:53:39.588Z,1026.5
2017-03-11T02:54:42.581Z,1026.5
2017-03-11T02:55:45.080Z,1026.5
2017-03-11T02:56:47.833Z,1026.5
2017-03-11T02:57:49.890Z,1026.6
2017-03-11T02:58:52.384Z,1026.5
2017-03-11T02:59:54.878Z,1026.5
2017-03-11T03:00:57.589Z,1026.6
2017-03-11T03:02:00.155Z,1026.5
2017-03-11T03:03:02.661Z,1026.5
2017-03-11T03:04:05.165Z,1026.5
2017-03-11T03:05:07.506Z,1026.5
2017-03-11T03:06:10.010Z,1026.5
2017-03-11T03:07:13.252Z,1026.5
2017-03-11T03:08:15.233Z,1026.5
2017-03-11T03:09:17.736Z,1026.5
2017-03-11T03:10:20.229Z,1026.5
2017-03-11T03:11:22.715Z,1026.5
2017-03-11T03:12:25.840Z,1026.5
2017-03-11T03:13:27.843Z,1026.5
2017-03-11T03:14:30.681Z,1026.5
2017-03-11T03:16:35.580Z,1026.5
2017-03-11T03:17:38.656Z,1026.5
2017-03-11T03:18:40.645Z,1026.4
2017-03-11T03:19:43.131Z,1026.5
2017-03-11T03:20:45.621Z,1026.4
2017-03-11T03:21:48.103Z,1026.4
2017-03-11T03:22:51.397Z,1026.4
2017-03-11T03:23:53.380Z,1026.4
2017-03-11T03:24:55.878Z,1026.4
2017-03-11T03:25:58.367Z,1026.4
2017-03-11T03:27:00.865Z,1026.4
2017-03-11T03:28:03.658Z,1026.4
2017-03-11T03:29:06.148Z,1026.5
2017-03-11T03:30:08.632Z,1026.4
2017-03-11T03:31:10.950Z,1026.5
2017-03-11T03:32:13.765Z,1026.4
2017-03-11T03:33:16.335Z,1026.4
2017-03-11T03:34:18.815Z,1026.4
2017-03-11T03:35:21.312Z,1026.4
2017-03-11T03:36:23.802Z,1026.4
2017-03-11T03:37:26.124Z,1026.3
2017-03-11T03:38:29.372Z,1026.3
2017-03-11T03:39:31.366Z,1026.3
2017-03-11T03:40:33.852Z,1026.3
2017-03-11T03:42:39.266Z,1026.3
2017-03-11T03:43:42.003Z,1026.3
2017-03-11T03:44:44.173Z,1026.3
2017-03-11T03:45:46.664Z,1026.3
2017-03-11T03:46:49.186Z,1026.3
2017-03-11T03:48:54.433Z,1026.3
2017-03-11T03:49:56.745Z,1026.3
2017-03-11T03:50:59.246Z,1026.3
2017-03-11T03:52:01.744Z,1026.3
2017-03-11T03:53:04.579Z,1026.2
2017-03-11T03:54:07.335Z,1026.2
2017-03-11T03:56:11.798Z,1026.2
2017-03-11T03:57:14.307Z,1026.2
2017-03-11T03:58:16.874Z,1026.2
2017-03-11T03:59:19.622Z,1026.2
2017-03-11T04:00:22.131Z,1026.1
2017-03-11T04:01:24.471Z,1026.1
2017-03-11T04:02:26.999Z,1026.1
2017-03-11T04:03:29.524Z,1026.1
2017-03-11T04:04:32.259Z,1026.1
2017-03-11T04:05:34.780Z,1026.1
2017-03-11T04:06:37.268Z,1026.1
2017-03-11T04:07:39.774Z,1026.1
2017-03-11T04:09:45.463Z,1026.2
2017-03-11T04:10:47.458Z,1026.2
2017-03-11T04:11:49.964Z,1026.2
2017-03-11T04:12:52.448Z,1026.2
2017-03-11T04:13:54.999Z,1026.2
2017-03-11T04:14:57.781Z,1026.3
2017-03-11T04:16:00.113Z,1026.2
2017-03-11T04:17:02.438Z,1026.3
2017-03-11T04:18:04.975Z,1026.3
2017-03-11T04:19:07.490Z,1026.2
2017-03-11T04:20:10.781Z,1026.2
2017-03-11T04:21:12.791Z,1026.1
2017-03-11T04:22:15.275Z,1026.1
2017-03-11T04:23:17.767Z,1026.1
2017-03-11T04:24:20.286Z,1026.1
2017-03-11T04:25:23.367Z,1026.1
2017-03-11T04:26:25.687Z,1026.1
2017-03-11T04:27:28.016Z,1026.1
2017-03-11T04:28:30.334Z,1026.1
2017-03-11T04:29:33.320Z,1026.1
2017-03-11T04:30:36.058Z,1026.1
2017-03-11T04:31:38.045Z,1026.1
2017-03-11T04:32:40.552Z,1026.1
2017-03-11T04:34:45.785Z,1026.1
2017-03-11T04:35:48.514Z,1026.1
2017-03-11T04:36:51.019Z,1026.1
2017-03-11T04:37:53.513Z,1026.1
2017-03-11T04:38:56.002Z,1026.1
2017-03-11T04:39:58.488Z,1026.1
2017-03-11T04:41:01.231Z,1026.1
2017-03-11T04:42:03.553Z,1026.1
2017-03-11T04:43:06.034Z,1026.1
2017-03-11T04:44:08.531Z,1026.1
2017-03-11T04:45:11.050Z,1026.1
2017-03-11T04:46:13.788Z,1026.1
2017-03-11T04:47:16.152Z,1026.1
2017-03-11T04:48:18.641Z,1026.1
2017-03-11T04:49:21.127Z,1026.1
2017-03-11T04:50:23.532Z,1026.1
2017-03-11T04:51:26.828Z,1026.1
2017-03-11T04:52:28.637Z,1026.1
2017-03-11T04:53:31.626Z,1026.1
2017-03-11T04:54:34.116Z,1026.1
2017-03-11T04:55:36.597Z,1026.1
2017-03-11T04:56:39.196Z,1026.1
2017-03-11T04:57:41.707Z,1026.1
2017-03-11T04:58:44.224Z,1026.1
2017-03-11T04:59:46.707Z,1026
2017-03-11T05:00:49.213Z,1026.1
2017-03-11T05:01:51.955Z,1026.1
2017-03-11T05:02:53.940Z,1026
2017-03-11T05:03:56.932Z,1026.1
2017-03-11T05:04:59.422Z,1026.1
2017-03-11T05:06:01.909Z,1026.1
2017-03-11T05:07:04.651Z,1026.2
2017-03-11T05:08:06.626Z,1026.1
2017-03-11T05:09:09.462Z,1026.1
2017-03-11T05:10:11.951Z,1026.1
2017-03-11T05:11:14.281Z,1026.1
2017-03-11T05:12:17.015Z,1026.1
2017-03-11T05:13:19.519Z,1026.1
2017-03-11T05:14:22.032Z,1026.1
2017-03-11T05:15:24.531Z,1026.1
2017-03-11T05:16:27.041Z,1026.2
2017-03-11T05:17:29.776Z,1026.1
2017-03-11T05:18:32.096Z,1026.2
2017-03-11T05:19:34.587Z,1026.2
2017-03-11T05:20:37.072Z,1026.2
2017-03-11T05:21:39.567Z,1026.2
2017-03-11T05:22:42.304Z,1026.1
2017-03-11T05:23:44.804Z,1026.1
2017-03-11T05:24:47.291Z,1026.1
2017-03-11T05:25:49.788Z,1026.2
2017-03-11T05:26:52.270Z,1026.2
2017-03-11T05:27:55.031Z,1026.2
2017-03-11T05:30:00.259Z,1026.2
2017-03-11T05:31:02.744Z,1026.1
2017-03-11T05:32:05.056Z,1026.1
2017-03-11T05:33:07.634Z,1026.1
2017-03-11T05:34:10.121Z,1026.2
2017-03-11T05:35:12.602Z,1026.2
2017-03-11T05:36:15.082Z,1026.2
2017-03-11T05:37:17.573Z,1026.1
2017-03-11T05:38:20.644Z,1026.2
2017-03-11T05:39:22.671Z,1026.2
2017-03-11T05:40:25.151Z,1026.2
2017-03-11T05:41:27.656Z,1026.2
2017-03-11T05:42:30.141Z,1026.2
2017-03-11T05:43:33.242Z,1026.1
2017-03-11T05:44:35.234Z,1026.1
2017-03-11T05:45:37.752Z,1026.2
2017-03-11T05:48:45.804Z,1026.3
2017-03-11T05:49:47.791Z,1026.3
2017-03-11T05:51:53.190Z,1026.2
2017-03-11T05:52:55.687Z,1026.2
2017-03-11T05:53:58.422Z,1026.2
2017-03-11T05:55:00.435Z,1026.2
2017-03-11T05:57:05.831Z,1026.2
2017-03-11T05:59:10.978Z,1026.3
2017-03-11T06:01:15.868Z,1026.3
2017-03-11T06:02:18.344Z,1026.3
2017-03-11T06:03:20.826Z,1026.4
2017-03-11T06:04:23.947Z,1026.3
2017-03-11T06:05:25.930Z,1026.3
2017-03-11T06:09:36.109Z,1026.2
2017-03-11T06:14:48.965Z,1026.2
2017-03-11T06:15:51.444Z,1026.2
2017-03-11T06:16:53.973Z,1026.2
2017-03-11T06:17:56.508Z,1026.2
2017-03-11T06:18:58.993Z,1026.2
2017-03-11T06:20:01.786Z,1026.2
2017-03-11T06:21:03.789Z,1026.2
2017-03-11T06:22:06.297Z,1026.2
2017-03-11T06:23:08.780Z,1026.2
2017-03-11T06:24:11.262Z,1026.2
2017-03-11T06:25:14.506Z,1026.3
2017-03-11T06:26:16.504Z,1026.2
2017-03-11T06:27:18.996Z,1026.2
2017-03-11T06:28:21.497Z,1026.2
2017-03-11T06:29:23.985Z,1026.1
2017-03-11T06:30:26.731Z,1026.1
2017-03-11T06:31:29.245Z,1026.1
2017-03-11T06:32:31.724Z,1026.2
2017-03-11T06:33:34.209Z,1026.2
2017-03-11T06:34:37.026Z,1026.2
2017-03-11T06:35:39.771Z,1026.1
2017-03-11T06:36:41.745Z,1026.1
2017-03-11T06:37:44.274Z,1026.1
2017-03-11T06:38:46.811Z,1026.1
2017-03-11T06:39:49.290Z,1026.1
2017-03-11T06:42:57.352Z,1026
2017-03-11T06:45:02.282Z,1026
2017-03-11T06:46:04.792Z,1025.9
2017-03-11T06:48:09.932Z,1026
2017-03-11T06:49:12.418Z,1025.9
2017-03-11T06:50:14.913Z,1026
2017-03-11T06:51:17.422Z,1026
2017-03-11T06:52:19.904Z,1026
2017-03-11T06:53:22.639Z,1026
2017-03-11T06:54:24.830Z,1026
2017-03-11T06:55:27.325Z,1026
2017-03-11T06:56:29.831Z,1026
2017-03-11T06:57:32.360Z,1026
2017-03-11T06:58:35.102Z,1026.1
2017-03-11T06:59:37.603Z,1026.1
2017-03-11T07:00:40.088Z,1026.1
2017-03-11T07:01:42.591Z,1026.2
2017-03-11T07:02:44.904Z,1026.2
2017-03-11T07:03:48.165Z,1026.1
2017-03-11T07:04:50.181Z,1026.2
2017-03-11T07:05:52.665Z,1026.2
2017-03-11T07:06:55.169Z,1026.2
2017-03-11T07:07:57.655Z,1026.2
2017-03-11T07:09:00.395Z,1026.2
2017-03-11T07:10:02.873Z,1026.3
2017-03-11T07:11:05.365Z,1026.3
2017-03-11T07:12:07.859Z,1026.2
2017-03-11T07:13:10.345Z,1026.3
2017-03-11T07:14:13.446Z,1026.3
2017-03-11T07:15:15.422Z,1026.3
2017-03-11T07:16:17.920Z,1026.3
2017-03-11T07:17:20.431Z,1026.3
2017-03-11T07:21:30.890Z,1026.3
2017-03-11T07:23:35.817Z,1026.3
2017-03-11T07:24:38.343Z,1026.3
2017-03-11T07:25:40.819Z,1026.3
2017-03-11T07:26:43.577Z,1026.3
2017-03-11T07:27:45.913Z,1026.3
2017-03-11T07:28:48.404Z,1026.3
2017-03-11T07:29:50.889Z,1026.3
2017-03-11T07:30:53.390Z,1026.3
2017-03-11T07:31:56.634Z,1026.3
2017-03-11T07:32:58.626Z,1026.3
2017-03-11T07:34:01.116Z,1026.3
2017-03-11T07:35:03.604Z,1026.3
2017-03-11T07:36:06.427Z,1026.3
2017-03-11T07:37:09.181Z,1026.3
2017-03-11T07:37:39.539Z,1026.3
2017-03-11T07:39:13.734Z,1026.3
2017-03-11T07:42:21.785Z,1026.3
2017-03-11T07:43:24.271Z,1026.3
2017-03-11T07:44:26.775Z,1026.3
2017-03-11T08:05:17.741Z,1026.3
2017-03-11T08:06:20.232Z,1026.2
2017-03-11T08:07:22.735Z,1026.2
2017-03-11T08:09:27.679Z,1026.2
2017-03-11T08:10:30.425Z,1026.2
2017-03-11T08:11:32.912Z,1026.2
2017-03-11T08:12:35.395Z,1026.2
2017-03-11T08:13:37.896Z,1026.2
2017-03-11T08:14:40.395Z,1026.2
2017-03-11T08:15:43.141Z,1026.2
2017-03-11T08:17:48.037Z,1026.2
2017-03-11T08:18:50.520Z,1026.2
2017-03-11T08:19:53.012Z,1026.2
2017-03-11T08:20:56.271Z,1026.2
2017-03-11T08:21:58.589Z,1026.2
2017-03-11T08:23:00.923Z,1026.2
2017-03-11T08:26:08.972Z,1026.2
2017-03-11T08:27:10.988Z,1026.1
2017-03-11T08:28:13.438Z,1026.1
2017-03-11T08:29:16.416Z,1026.1
2017-03-11T08:30:18.873Z,1026.1
2017-03-11T08:31:21.607Z,1026.1
2017-03-11T08:32:24.059Z,1026.1
2017-03-11T08:33:26.513Z,1026.1
2017-03-11T08:35:31.379Z,1026.1
2017-03-11T08:36:34.616Z,1026.1
2017-03-11T08:37:36.560Z,1026
2017-03-11T08:38:39.361Z,1026.1
2017-03-11T08:39:41.669Z,1026.1
2017-03-11T08:41:47.287Z,1026.1
2017-03-11T08:42:49.749Z,1026.1
2017-03-11T08:43:52.230Z,1026.1
2017-03-11T08:44:54.683Z,1026.1
2017-03-11T08:45:57.141Z,1026.1
2017-03-11T08:48:02.768Z,1026.1
2017-03-11T08:49:04.893Z,1026.1
2017-03-11T08:50:07.345Z,1026.1
2017-03-11T08:51:10.138Z,1026.1
2017-03-11T08:52:12.487Z,1026.1
2017-03-11T08:53:15.198Z,1026
2017-03-11T08:54:17.656Z,1026
2017-03-11T08:55:20.118Z,1026
2017-03-11T08:56:22.918Z,1026
2017-03-11T08:57:25.197Z,1025.9
2017-03-11T08:58:28.414Z,1025.9
2017-03-11T08:59:30.700Z,1025.9
2017-03-11T09:02:38.464Z,1025.9
2017-03-11T09:03:41.178Z,1025.9
2017-03-11T09:04:43.141Z,1025.9
2017-03-11T09:05:46.099Z,1025.9
2017-03-11T09:06:48.580Z,1025.9
2017-03-11T09:07:51.058Z,1025.8
2017-03-11T09:08:53.771Z,1025.8
2017-03-11T09:09:56.239Z,1025.9
2017-03-11T09:10:58.737Z,1025.9
2017-03-11T09:12:01.227Z,1025.9
2017-03-11T09:13:04.206Z,1025.9
2017-03-11T09:14:06.910Z,1025.9
2017-03-11T09:15:08.875Z,1025.9
2017-03-11T09:16:11.860Z,1025.8
2017-03-11T09:17:14.149Z,1025.8
2017-03-11T09:18:16.605Z,1025.8
2017-03-11T09:19:19.828Z,1025.8
2017-03-11T09:21:24.695Z,1025.8
2017-03-11T09:24:32.722Z,1025.8
2017-03-11T09:28:42.902Z,1025.8
2017-03-11T09:32:53.344Z,1025.7
2017-03-11T09:37:03.533Z,1025.7
2017-03-11T09:40:11.403Z,1025.7
2017-03-11T09:41:13.853Z,1025.8
2017-03-11T09:42:16.318Z,1025.7
2017-03-11T09:43:18.792Z,1025.7
2017-03-11T09:45:24.441Z,1025.8
2017-03-11T09:46:26.890Z,1025.7
2017-03-11T09:47:29.386Z,1025.8
2017-03-11T09:48:31.842Z,1025.8
2017-03-11T09:49:34.637Z,1025.7
2017-03-11T09:50:37.367Z,1025.8
2017-03-11T09:52:42.104Z,1025.8
2017-03-11T09:53:45.080Z,1025.7
2017-03-11T09:54:47.538Z,1025.7
2017-03-11T09:55:50.248Z,1025.8
2017-03-11T10:08:21.475Z,1025.6
2017-03-11T10:14:37.229Z,1025.7
2017-03-11T10:17:44.512Z,1025.7
2017-03-11T10:18:47.501Z,1025.6
2017-03-11T10:19:50.265Z,1025.7
2017-03-11T10:28:10.826Z,1025.6
2017-03-11T10:30:16.224Z,1025.6
2017-03-11T10:31:18.674Z,1025.5
2017-03-11T10:32:21.157Z,1025.5
2017-03-11T10:33:23.862Z,1025.5
2017-03-11T10:34:26.309Z,1025.5
2017-03-11T10:34:56.571Z,1025.5
2017-03-11T10:37:34.149Z,1025.6
2017-03-11T10:38:37.258Z,1025.5
2017-03-11T10:39:39.734Z,1025.5
2017-03-11T10:40:42.187Z,1025.5
2017-03-11T10:41:44.636Z,1025.5
2017-03-11T10:42:47.105Z,1025.5
2017-03-11T10:43:50.316Z,1025.5
2017-03-11T10:44:52.767Z,1025.4
2017-03-11T10:45:55.221Z,1025.4
2017-03-11T10:46:57.678Z,1025.4
2017-03-11T10:48:00.636Z,1025.4
2017-03-11T10:50:05.745Z,1025.4
2017-03-11T10:51:08.025Z,1025.4
2017-03-11T10:52:10.987Z,1025.4
2017-03-11T10:53:13.457Z,1025.3
2017-03-11T10:54:15.934Z,1025.3
2017-03-11T10:55:19.211Z,1025.3
2017-03-11T10:57:24.065Z,1025.3
2017-03-11T10:58:26.519Z,1025.3
2017-03-11T10:59:29.311Z,1025.3
2017-03-11T11:00:32.049Z,1025.3
2017-03-11T11:01:34.376Z,1025.3
2017-03-11T11:02:36.826Z,1025.3
2017-03-11T11:03:39.779Z,1025.3
2017-03-11T11:04:42.237Z,1025.2
2017-03-11T11:05:44.955Z,1025.3
2017-03-11T11:06:47.412Z,1025.3
2017-03-11T11:07:49.869Z,1025.3
2017-03-11T11:08:52.826Z,1025.2
2017-03-11T11:09:55.279Z,1025.2
2017-03-11T11:10:58.330Z,1025.2
2017-03-11T11:12:00.615Z,1025.2
2017-03-11T11:13:03.072Z,1025.3
2017-03-11T11:14:06.028Z,1025.2
2017-03-11T11:16:11.134Z,1025.2
2017-03-11T11:17:13.586Z,1025.2
2017-03-11T11:18:16.583Z,1025.2
2017-03-11T11:19:19.049Z,1025.1
2017-03-11T11:20:21.496Z,1025.2
2017-03-11T11:21:24.757Z,1025.2
2017-03-11T11:22:26.710Z,1025.1
2017-03-11T11:23:29.676Z,1025.1
2017-03-11T11:25:34.547Z,1025.1
2017-03-11T11:26:37.638Z,1025.1
2017-03-11T11:27:40.109Z,1025.1
2017-03-11T11:28:42.419Z,1025.1
2017-03-11T11:29:45.379Z,1025.1
2017-03-11T11:30:47.846Z,1025.1
2017-03-11T11:31:50.547Z,1025
2017-03-11T11:32:53.027Z,1025
2017-03-11T11:33:55.480Z,1025
2017-03-11T11:34:58.457Z,1024.9
2017-03-11T11:36:00.929Z,1024.9
2017-03-11T11:37:03.659Z,1024.9
2017-03-11T11:38:06.128Z,1024.9
2017-03-11T11:39:08.582Z,1024.9
2017-03-11T11:40:11.551Z,1024.9
2017-03-11T11:41:13.864Z,1024.9
2017-03-11T11:42:16.903Z,1024.9
2017-03-11T11:43:19.395Z,1024.9
2017-03-11T11:45:24.755Z,1024.8
2017-03-11T11:46:27.213Z,1024.8
2017-03-11T11:47:29.921Z,1024.8
2017-03-11T11:48:32.398Z,1024.8
2017-03-11T11:49:34.869Z,1024.8
2017-03-11T11:51:40.244Z,1024.7
2017-03-11T11:52:43.014Z,1024.7
2017-03-11T11:53:45.485Z,1024.7
2017-03-11T11:54:48.487Z,1024.7
2017-03-11T11:55:50.953Z,1024.7
2017-03-11T11:56:53.408Z,1024.8
2017-03-11T11:57:56.633Z,1024.8
2017-03-11T12:00:01.486Z,1024.7
2017-03-11T12:01:03.962Z,1024.7
2017-03-11T12:02:06.452Z,1024.7
2017-03-11T12:03:09.503Z,1024.7
2017-03-11T12:04:11.955Z,1024.7
2017-03-11T12:06:17.144Z,1024.7
2017-03-11T12:08:22.814Z,1024.7
2017-03-11T12:09:25.328Z,1024.7
2017-03-11T12:10:27.787Z,1024.6
2017-03-11T12:12:33.150Z,1024.7
2017-03-11T12:14:38.766Z,1024.6
2017-03-11T12:15:40.729Z,1024.6
2017-03-11T12:16:43.707Z,1024.7
2017-03-11T12:17:46.160Z,1024.7
2017-03-11T12:18:48.635Z,1024.6
2017-03-11T12:19:51.851Z,1024.6
2017-03-11T12:20:54.138Z,1024.6
2017-03-11T12:21:56.608Z,1024.6
2017-03-11T12:22:59.572Z,1024.6
2017-03-11T12:24:02.023Z,1024.6
2017-03-11T12:25:04.745Z,1024.6
2017-03-11T12:26:07.212Z,1024.5
2017-03-11T12:27:09.687Z,1024.6
2017-03-11T12:28:12.677Z,1024.6
2017-03-11T12:29:15.138Z,1024.5
2017-03-11T12:30:17.844Z,1024.5
2017-03-11T12:31:20.327Z,1024.5
2017-03-11T12:32:22.824Z,1024.5
2017-03-11T12:33:25.623Z,1024.5
2017-03-11T12:34:28.486Z,1024.6
2017-03-11T12:35:31.291Z,1024.6
2017-03-11T12:37:36.157Z,1024.5
2017-03-11T12:38:38.654Z,1024.5
2017-03-11T12:39:41.451Z,1024.5
2017-03-11T12:40:44.157Z,1024.5
2017-03-11T12:41:46.612Z,1024.5
2017-03-11T12:42:49.565Z,1024.5
2017-03-11T12:43:52.039Z,1024.6
2017-03-11T12:44:54.502Z,1024.5
2017-03-11T12:45:57.704Z,1024.6
2017-03-11T12:47:00.158Z,1024.5
2017-03-11T12:48:02.657Z,1024.5
2017-03-11T12:49:05.107Z,1024.5
2017-03-11T12:50:08.059Z,1024.4
2017-03-11T12:51:10.781Z,1024.5
2017-03-11T12:52:13.232Z,1024.5
2017-03-11T12:53:15.723Z,1024.5
2017-03-11T12:54:18.185Z,1024.5
2017-03-11T12:55:21.146Z,1024.4
2017-03-11T12:56:23.860Z,1024.5
2017-03-11T12:57:26.351Z,1024.4
2017-03-11T12:58:28.842Z,1024.4
2017-03-11T12:59:31.816Z,1024.5
2017-03-11T13:00:34.272Z,1024.5
2017-03-11T13:01:37.330Z,1024.4
2017-03-11T13:02:39.290Z,1024.4
2017-03-11T13:03:42.081Z,1024.4
2017-03-11T13:04:44.541Z,1024.4
2017-03-11T13:05:47.542Z,1024.4
2017-03-11T13:06:50.252Z,1024.4
2017-03-11T13:07:52.571Z,1024.4
2017-03-11T13:08:55.046Z,1024.3
2017-03-11T13:11:00.409Z,1024.3
2017-03-11T13:12:03.618Z,1024.3
2017-03-11T13:13:05.603Z,1024.4
2017-03-11T13:14:08.563Z,1024.4
2017-03-11T13:15:11.027Z,1024.4
2017-03-11T13:17:16.641Z,1024.4
2017-03-11T13:18:19.092Z,1024.4
2017-03-11T13:19:21.543Z,1024.4
2017-03-11T13:20:24.504Z,1024.3
2017-03-11T13:21:26.958Z,1024.3
2017-03-11T13:22:29.708Z,1024.3
2017-03-11T13:23:32.159Z,1024.4
2017-03-11T13:24:34.608Z,1024.3
2017-03-11T13:25:37.397Z,1024.3
2017-03-11T13:26:39.874Z,1024.3
2017-03-11T13:28:45.498Z,1024.3
2017-03-11T13:30:50.836Z,1024.3
2017-03-11T13:31:53.291Z,1024.3
2017-03-11T13:32:55.758Z,1024.2
2017-03-11T13:33:59.032Z,1024.2
2017-03-11T13:35:01.019Z,1024.3
2017-03-11T13:36:03.976Z,1024.2
2017-03-11T13:37:06.448Z,1024.2
2017-03-11T13:38:08.919Z,1024.2
2017-03-11T13:39:12.126Z,1024.2
2017-03-11T13:40:14.411Z,1024.1
2017-03-11T13:41:16.865Z,1024.2
2017-03-11T13:42:19.665Z,1024.2
2017-03-11T13:43:22.131Z,1024.2
2017-03-11T13:44:25.340Z,1024.2
2017-03-11T13:47:32.965Z,1024.2
2017-03-11T13:49:38.600Z,1024.1
2017-03-11T13:50:40.575Z,1024.2
2017-03-11T13:51:43.536Z,1024.1
2017-03-11T13:52:45.993Z,1024.1
2017-03-11T13:53:48.483Z,1024.1
2017-03-11T13:54:51.530Z,1024.1
2017-03-11T13:55:54.006Z,1024.1
2017-03-11T13:56:56.352Z,1024.1
2017-03-11T13:57:59.148Z,1024.1
2017-03-11T13:59:01.602Z,1024.1
2017-03-11T14:00:04.839Z,1024.1
2017-03-11T14:01:07.124Z,1024
2017-03-11T14:03:12.482Z,1024
2017-03-11T14:04:14.938Z,1024.1
2017-03-11T14:05:18.148Z,1024
2017-03-11T14:06:20.136Z,1024
2017-03-11T14:07:23.099Z,1023.9
2017-03-11T14:09:28.295Z,1024
2017-03-11T14:11:33.907Z,1023.9
2017-03-11T14:12:35.862Z,1023.9
2017-03-11T14:13:38.836Z,1023.9
2017-03-11T14:14:41.314Z,1023.9
2017-03-11T14:15:43.768Z,1023.9
2017-03-11T14:16:47.042Z,1023.9
2017-03-11T14:17:49.497Z,1023.8
2017-03-11T14:18:51.963Z,1023.8
2017-03-11T14:19:54.415Z,1023.9
2017-03-11T14:20:57.056Z,1023.8
2017-03-11T14:22:00.268Z,1023.8
2017-03-11T14:23:02.223Z,1023.8
2017-03-11T14:24:05.204Z,1023.8
2017-03-11T14:25:07.672Z,1023.8
2017-03-11T14:26:10.135Z,1023.8
2017-03-11T14:27:13.399Z,1023.8
2017-03-11T14:28:15.364Z,1023.8
2017-03-11T14:29:18.152Z,1023.8
2017-03-11T14:30:20.611Z,1023.9
2017-03-11T14:31:23.432Z,1023.8
2017-03-11T14:32:26.490Z,1023.8
2017-03-11T14:33:28.941Z,1023.8
2017-03-11T14:34:31.405Z,1023.8
2017-03-11T14:36:36.783Z,1023.8
2017-03-11T14:39:44.583Z,1023.7
2017-03-11T14:41:49.951Z,1023.8
2017-03-11T14:42:52.412Z,1023.7
2017-03-11T14:43:22.657Z,1023.7
2017-03-11T14:43:54.947Z,1023.7
2017-03-11T14:44:57.833Z,1023.7
2017-03-11T14:46:00.286Z,1023.7
2017-03-11T14:48:05.652Z,1023.7
2017-03-11T14:49:08.109Z,1023.6
2017-03-11T14:52:16.167Z,1023.6
2017-03-11T14:53:18.638Z,1023.7
2017-03-11T14:54:21.615Z,1023.6
2017-03-11T14:55:24.070Z,1023.7
2017-03-11T14:56:26.520Z,1023.6
2017-03-11T14:58:32.137Z,1023.7
2017-03-11T14:59:34.598Z,1023.7
2017-03-11T15:00:37.051Z,1023.7
2017-03-11T15:01:39.804Z,1023.7
2017-03-11T15:02:42.592Z,1023.7
2017-03-11T15:03:45.322Z,1023.7
2017-03-11T15:04:47.790Z,1023.7
2017-03-11T15:05:50.074Z,1023.7
2017-03-11T15:06:53.060Z,1023.7
2017-03-11T15:07:55.530Z,1023.6
2017-03-11T15:08:58.592Z,1023.6
2017-03-11T15:10:00.558Z,1023.6
2017-03-11T15:11:03.374Z,1023.7
2017-03-11T15:12:05.839Z,1023.6
2017-03-11T15:14:11.514Z,1023.7
2017-03-11T16:01:09.149Z,1023.7
2017-03-11T16:03:14.014Z,1023.7
2017-03-11T16:04:16.841Z,1023.7
2017-03-11T16:05:19.305Z,1023.7
2017-03-11T16:06:23.074Z,1023.6
2017-03-11T16:07:24.523Z,1023.6
2017-03-11T16:08:27.351Z,1023.6
2017-03-11T16:09:29.839Z,1023.7
2017-03-11T16:10:32.307Z,1023.6
2017-03-11T16:11:35.514Z,1023.7
2017-03-11T16:12:37.822Z,1023.6
2017-03-11T16:13:40.292Z,1023.6